sensor_id;sensor_type;location;lat;lon;timestamp;P1;durP1;ratioP1;P2;durP2;ratioP2
54871;SDS011;43914;57.680;11.982;2024-03-02T00:00:49;62.40;;;26.60;;
54871;SDS011;43914;57.680;11.982;2024-03-02T00:03:16;56.50;;;27.00;;
54871;SDS011;43914;57.680;11.982;2024-03-02T00:05:42;66.80;;;28.50;;
54871;SDS011;43914;57.680;11.982;2024-03-02T00:08:08;61.10;;;28.60;;
54871;SDS011;43914;57.680;11.982;2024-03-02T00:10:37;59.70;;;28.00;;
54871;SDS011;43914;57.680;11.982;2024-03-02T00:13:08;65.80;;;29.50;;
54871;SDS011;43914;57.680;11.982;2024-03-02T00:18:04;65.80;;;30.70;;
54871;SDS011;43914;57.680;11.982;2024-03-02T00:20:30;65.90;;;29.20;;
54871;SDS011;43914;57.680;11.982;2024-03-02T00:23:03;69.20;;;29.40;;
54871;SDS011;43914;57.680;11.982;2024-03-02T00:25:37;62.40;;;27.50;;
54871;SDS011;43914;57.680;11.982;2024-03-02T00:28:14;62.80;;;27.50;;
54871;SDS011;43914;57.680;11.982;2024-03-02T00:33:10;60.80;;;25.80;;
54871;SDS011;43914;57.680;11.982;2024-03-02T00:35:35;59.30;;;28.30;;
54871;SDS011;43914;57.680;11.982;2024-03-02T00:38:05;62.30;;;27.10;;
54871;SDS011;43914;57.680;11.982;2024-03-02T00:40:31;68.30;;;29.00;;
54871;SDS011;43914;57.680;11.982;2024-03-02T00:42:57;66.00;;;28.60;;
54871;SDS011;43914;57.680;11.982;2024-03-02T00:45:23;54.80;;;26.50;;
54871;SDS011;43914;57.680;11.982;2024-03-02T00:47:50;64.30;;;28.20;;
54871;SDS011;43914;57.680;11.982;2024-03-02T00:50:15;58.40;;;26.60;;
54871;SDS011;43914;57.680;11.982;2024-03-02T00:52:42;61.80;;;29.30;;
54871;SDS011;43914;57.680;11.982;2024-03-02T00:55:08;61.10;;;27.60;;
54871;SDS011;43914;57.680;11.982;2024-03-02T00:57:34;60.20;;;26.60;;
54871;SDS011;43914;57.680;11.982;2024-03-02T01:00:00;64.50;;;27.60;;
54871;SDS011;43914;57.680;11.982;2024-03-02T01:02:25;60.70;;;28.30;;
54871;SDS011;43914;57.680;11.982;2024-03-02T01:04:52;59.60;;;25.70;;
54871;SDS011;43914;57.680;11.982;2024-03-02T01:07:17;65.30;;;29.50;;
54871;SDS011;43914;57.680;11.982;2024-03-02T01:09:43;69.60;;;30.20;;
54871;SDS011;43914;57.680;11.982;2024-03-02T01:12:08;60.50;;;26.30;;
54871;SDS011;43914;57.680;11.982;2024-03-02T01:14:34;56.00;;;25.50;;
54871;SDS011;43914;57.680;11.982;2024-03-02T01:17:00;63.10;;;29.20;;
54871;SDS011;43914;57.680;11.982;2024-03-02T01:19:28;60.90;;;28.20;;
54871;SDS011;43914;57.680;11.982;2024-03-02T01:21:54;59.90;;;27.20;;
54871;SDS011;43914;57.680;11.982;2024-03-02T01:24:19;67.90;;;29.60;;
54871;SDS011;43914;57.680;11.982;2024-03-02T01:26:45;66.20;;;28.30;;
54871;SDS011;43914;57.680;11.982;2024-03-02T01:29:10;59.70;;;27.20;;
54871;SDS011;43914;57.680;11.982;2024-03-02T01:31:36;55.40;;;25.90;;
54871;SDS011;43914;57.680;11.982;2024-03-02T01:34:01;68.70;;;30.20;;
54871;SDS011;43914;57.680;11.982;2024-03-02T01:36:27;66.10;;;29.00;;
54871;SDS011;43914;57.680;11.982;2024-03-02T01:38:52;58.20;;;25.50;;
54871;SDS011;43914;57.680;11.982;2024-03-02T01:41:17;65.50;;;27.60;;
54871;SDS011;43914;57.680;11.982;2024-03-02T01:43:43;57.20;;;25.60;;
54871;SDS011;43914;57.680;11.982;2024-03-02T01:46:08;60.60;;;27.00;;
54871;SDS011;43914;57.680;11.982;2024-03-02T01:48:34;57.00;;;25.90;;
54871;SDS011;43914;57.680;11.982;2024-03-02T01:50:59;62.70;;;28.70;;
54871;SDS011;43914;57.680;11.982;2024-03-02T01:53:26;59.10;;;26.00;;
54871;SDS011;43914;57.680;11.982;2024-03-02T01:55:52;69.10;;;27.80;;
54871;SDS011;43914;57.680;11.982;2024-03-02T01:58:17;60.10;;;27.00;;
54871;SDS011;43914;57.680;11.982;2024-03-02T02:00:42;55.50;;;26.00;;
54871;SDS011;43914;57.680;11.982;2024-03-02T02:03:08;56.40;;;24.70;;
54871;SDS011;43914;57.680;11.982;2024-03-02T02:05:34;60.80;;;27.20;;
54871;SDS011;43914;57.680;11.982;2024-03-02T02:08:00;60.80;;;26.50;;
54871;SDS011;43914;57.680;11.982;2024-03-02T02:10:26;52.90;;;24.60;;
54871;SDS011;43914;57.680;11.982;2024-03-02T02:12:51;66.40;;;28.30;;
54871;SDS011;43914;57.680;11.982;2024-03-02T02:15:30;55.40;;;25.00;;
54871;SDS011;43914;57.680;11.982;2024-03-02T02:17:57;56.70;;;25.20;;
54871;SDS011;43914;57.680;11.982;2024-03-02T02:20:23;55.50;;;26.20;;
54871;SDS011;43914;57.680;11.982;2024-03-02T02:22:54;55.20;;;26.10;;
54871;SDS011;43914;57.680;11.982;2024-03-02T02:25:20;55.70;;;25.10;;
54871;SDS011;43914;57.680;11.982;2024-03-02T02:27:46;60.70;;;26.70;;
54871;SDS011;43914;57.680;11.982;2024-03-02T02:30:11;58.10;;;26.30;;
54871;SDS011;43914;57.680;11.982;2024-03-02T02:32:37;54.50;;;25.60;;
54871;SDS011;43914;57.680;11.982;2024-03-02T02:35:02;54.30;;;25.30;;
54871;SDS011;43914;57.680;11.982;2024-03-02T02:37:28;61.20;;;26.70;;
54871;SDS011;43914;57.680;11.982;2024-03-02T02:39:54;61.10;;;26.10;;
54871;SDS011;43914;57.680;11.982;2024-03-02T02:42:19;56.70;;;25.10;;
54871;SDS011;43914;57.680;11.982;2024-03-02T02:44:44;56.10;;;26.60;;
54871;SDS011;43914;57.680;11.982;2024-03-02T02:47:10;54.30;;;24.60;;
54871;SDS011;43914;57.680;11.982;2024-03-02T02:49:35;58.90;;;25.80;;
54871;SDS011;43914;57.680;11.982;2024-03-02T02:52:01;62.70;;;28.00;;
54871;SDS011;43914;57.680;11.982;2024-03-02T02:54:26;59.90;;;25.30;;
54871;SDS011;43914;57.680;11.982;2024-03-02T02:56:52;54.90;;;25.10;;
54871;SDS011;43914;57.680;11.982;2024-03-02T02:59:17;51.30;;;23.80;;
54871;SDS011;43914;57.680;11.982;2024-03-02T03:01:43;48.30;;;23.20;;
54871;SDS011;43914;57.680;11.982;2024-03-02T03:04:09;61.90;;;27.10;;
54871;SDS011;43914;57.680;11.982;2024-03-02T03:06:34;59.20;;;26.00;;
54871;SDS011;43914;57.680;11.982;2024-03-02T03:09:00;59.50;;;26.90;;
54871;SDS011;43914;57.680;11.982;2024-03-02T03:11:25;58.40;;;26.70;;
54871;SDS011;43914;57.680;11.982;2024-03-02T03:13:51;59.70;;;27.20;;
54871;SDS011;43914;57.680;11.982;2024-03-02T03:16:19;54.00;;;25.10;;
54871;SDS011;43914;57.680;11.982;2024-03-02T03:18:44;57.50;;;25.50;;
54871;SDS011;43914;57.680;11.982;2024-03-02T03:21:09;53.90;;;24.60;;
54871;SDS011;43914;57.680;11.982;2024-03-02T03:23:35;61.10;;;27.10;;
54871;SDS011;43914;57.680;11.982;2024-03-02T03:26:00;52.30;;;25.60;;
54871;SDS011;43914;57.680;11.982;2024-03-02T03:28:26;55.70;;;26.50;;
54871;SDS011;43914;57.680;11.982;2024-03-02T03:30:51;52.30;;;23.50;;
54871;SDS011;43914;57.680;11.982;2024-03-02T03:33:16;55.40;;;23.90;;
54871;SDS011;43914;57.680;11.982;2024-03-02T03:35:42;52.50;;;25.10;;
54871;SDS011;43914;57.680;11.982;2024-03-02T03:38:07;55.10;;;24.20;;
54871;SDS011;43914;57.680;11.982;2024-03-02T03:40:33;51.30;;;24.70;;
54871;SDS011;43914;57.680;11.982;2024-03-02T03:42:58;57.40;;;24.20;;
54871;SDS011;43914;57.680;11.982;2024-03-02T03:45:25;57.10;;;25.70;;
54871;SDS011;43914;57.680;11.982;2024-03-02T03:47:52;53.10;;;25.70;;
54871;SDS011;43914;57.680;11.982;2024-03-02T03:50:18;58.80;;;25.80;;
54871;SDS011;43914;57.680;11.982;2024-03-02T03:52:44;53.40;;;23.30;;
54871;SDS011;43914;57.680;11.982;2024-03-02T03:55:10;55.20;;;24.00;;
54871;SDS011;43914;57.680;11.982;2024-03-02T03:57:36;51.70;;;23.90;;
54871;SDS011;43914;57.680;11.982;2024-03-02T04:00:05;47.30;;;21.70;;
54871;SDS011;43914;57.680;11.982;2024-03-02T04:02:35;53.60;;;24.60;;
54871;SDS011;43914;57.680;11.982;2024-03-02T04:05:01;50.40;;;23.60;;
54871;SDS011;43914;57.680;11.982;2024-03-02T04:07:30;55.90;;;24.60;;
54871;SDS011;43914;57.680;11.982;2024-03-02T04:09:55;57.90;;;26.20;;
54871;SDS011;43914;57.680;11.982;2024-03-02T04:12:21;62.40;;;26.70;;
54871;SDS011;43914;57.680;11.982;2024-03-02T04:14:47;52.90;;;23.30;;
54871;SDS011;43914;57.680;11.982;2024-03-02T04:17:12;59.60;;;26.10;;
54871;SDS011;43914;57.680;11.982;2024-03-02T04:19:38;57.70;;;25.90;;
54871;SDS011;43914;57.680;11.982;2024-03-02T04:22:04;58.10;;;24.90;;
54871;SDS011;43914;57.680;11.982;2024-03-02T04:24:29;56.90;;;25.00;;
54871;SDS011;43914;57.680;11.982;2024-03-02T04:26:55;60.50;;;26.40;;
54871;SDS011;43914;57.680;11.982;2024-03-02T04:29:21;61.90;;;26.60;;
54871;SDS011;43914;57.680;11.982;2024-03-02T04:31:46;59.20;;;27.40;;
54871;SDS011;43914;57.680;11.982;2024-03-02T04:34:12;55.50;;;25.90;;
54871;SDS011;43914;57.680;11.982;2024-03-02T04:36:37;65.00;;;26.90;;
54871;SDS011;43914;57.680;11.982;2024-03-02T04:39:02;57.70;;;25.40;;
54871;SDS011;43914;57.680;11.982;2024-03-02T04:41:28;58.80;;;25.50;;
54871;SDS011;43914;57.680;11.982;2024-03-02T04:43:53;53.00;;;23.80;;
54871;SDS011;43914;57.680;11.982;2024-03-02T04:46:19;49.90;;;23.20;;
54871;SDS011;43914;57.680;11.982;2024-03-02T04:48:44;57.60;;;25.60;;
54871;SDS011;43914;57.680;11.982;2024-03-02T04:51:09;59.40;;;24.20;;
54871;SDS011;43914;57.680;11.982;2024-03-02T04:53:36;57.80;;;23.50;;
54871;SDS011;43914;57.680;11.982;2024-03-02T04:56:01;51.90;;;24.00;;
54871;SDS011;43914;57.680;11.982;2024-03-02T04:58:45;57.60;;;24.50;;
54871;SDS011;43914;57.680;11.982;2024-03-02T05:01:11;51.60;;;23.50;;
54871;SDS011;43914;57.680;11.982;2024-03-02T05:03:37;43.70;;;21.20;;
54871;SDS011;43914;57.680;11.982;2024-03-02T05:06:03;49.10;;;22.90;;
54871;SDS011;43914;57.680;11.982;2024-03-02T05:08:29;51.40;;;22.00;;
54871;SDS011;43914;57.680;11.982;2024-03-02T05:10:54;46.80;;;22.00;;
54871;SDS011;43914;57.680;11.982;2024-03-02T05:13:20;52.20;;;22.90;;
54871;SDS011;43914;57.680;11.982;2024-03-02T05:15:46;46.30;;;22.40;;
54871;SDS011;43914;57.680;11.982;2024-03-02T05:18:11;57.50;;;25.90;;
54871;SDS011;43914;57.680;11.982;2024-03-02T05:20:37;52.70;;;24.60;;
54871;SDS011;43914;57.680;11.982;2024-03-02T05:23:02;50.70;;;23.30;;
54871;SDS011;43914;57.680;11.982;2024-03-02T05:25:28;59.50;;;26.00;;
54871;SDS011;43914;57.680;11.982;2024-03-02T05:27:54;52.10;;;24.60;;
54871;SDS011;43914;57.680;11.982;2024-03-02T05:30:19;50.60;;;21.90;;
54871;SDS011;43914;57.680;11.982;2024-03-02T05:32:45;53.00;;;23.80;;
54871;SDS011;43914;57.680;11.982;2024-03-02T05:35:10;51.30;;;22.90;;
54871;SDS011;43914;57.680;11.982;2024-03-02T05:37:37;51.10;;;23.60;;
54871;SDS011;43914;57.680;11.982;2024-03-02T05:40:04;62.60;;;26.30;;
54871;SDS011;43914;57.680;11.982;2024-03-02T05:42:30;57.70;;;26.10;;
54871;SDS011;43914;57.680;11.982;2024-03-02T05:44:56;56.80;;;25.30;;
54871;SDS011;43914;57.680;11.982;2024-03-02T05:47:21;59.00;;;25.70;;
54871;SDS011;43914;57.680;11.982;2024-03-02T05:49:47;51.90;;;24.10;;
54871;SDS011;43914;57.680;11.982;2024-03-02T05:52:12;61.70;;;26.20;;
54871;SDS011;43914;57.680;11.982;2024-03-02T05:54:37;56.00;;;26.30;;
54871;SDS011;43914;57.680;11.982;2024-03-02T05:57:03;60.40;;;27.40;;
54871;SDS011;43914;57.680;11.982;2024-03-02T05:59:42;54.90;;;25.60;;
54871;SDS011;43914;57.680;11.982;2024-03-02T06:02:09;56.70;;;24.30;;
54871;SDS011;43914;57.680;11.982;2024-03-02T06:04:34;61.30;;;27.30;;
54871;SDS011;43914;57.680;11.982;2024-03-02T06:06:59;57.20;;;23.80;;
54871;SDS011;43914;57.680;11.982;2024-03-02T06:09:25;60.40;;;26.20;;
54871;SDS011;43914;57.680;11.982;2024-03-02T06:11:51;58.40;;;26.30;;
54871;SDS011;43914;57.680;11.982;2024-03-02T06:14:16;66.10;;;28.70;;
54871;SDS011;43914;57.680;11.982;2024-03-02T06:16:42;59.90;;;26.60;;
54871;SDS011;43914;57.680;11.982;2024-03-02T06:19:07;57.70;;;26.60;;
54871;SDS011;43914;57.680;11.982;2024-03-02T06:21:33;58.90;;;25.90;;
54871;SDS011;43914;57.680;11.982;2024-03-02T06:23:58;51.80;;;24.00;;
54871;SDS011;43914;57.680;11.982;2024-03-02T06:26:24;49.90;;;22.90;;
54871;SDS011;43914;57.680;11.982;2024-03-02T06:28:49;58.10;;;24.80;;
54871;SDS011;43914;57.680;11.982;2024-03-02T06:31:14;60.70;;;28.30;;
54871;SDS011;43914;57.680;11.982;2024-03-02T06:33:40;61.50;;;26.50;;
54871;SDS011;43914;57.680;11.982;2024-03-02T06:36:06;51.50;;;23.60;;
54871;SDS011;43914;57.680;11.982;2024-03-02T06:38:36;64.30;;;28.00;;
54871;SDS011;43914;57.680;11.982;2024-03-02T06:41:02;65.50;;;28.30;;
54871;SDS011;43914;57.680;11.982;2024-03-02T06:43:27;63.30;;;28.90;;
54871;SDS011;43914;57.680;11.982;2024-03-02T06:45:53;58.10;;;24.60;;
54871;SDS011;43914;57.680;11.982;2024-03-02T06:48:18;56.00;;;25.20;;
54871;SDS011;43914;57.680;11.982;2024-03-02T06:50:48;54.60;;;25.00;;
54871;SDS011;43914;57.680;11.982;2024-03-02T06:53:14;53.20;;;24.00;;
54871;SDS011;43914;57.680;11.982;2024-03-02T06:55:44;58.60;;;25.40;;
54871;SDS011;43914;57.680;11.982;2024-03-02T06:58:11;64.60;;;27.40;;
54871;SDS011;43914;57.680;11.982;2024-03-02T07:00:41;53.00;;;23.80;;
54871;SDS011;43914;57.680;11.982;2024-03-02T07:03:07;63.40;;;28.30;;
54871;SDS011;43914;57.680;11.982;2024-03-02T07:05:33;70.90;;;29.50;;
54871;SDS011;43914;57.680;11.982;2024-03-02T07:07:58;69.80;;;28.30;;
54871;SDS011;43914;57.680;11.982;2024-03-02T07:10:24;61.00;;;27.10;;
54871;SDS011;43914;57.680;11.982;2024-03-02T07:12:50;65.60;;;27.50;;
54871;SDS011;43914;57.680;11.982;2024-03-02T07:15:15;68.70;;;29.30;;
54871;SDS011;43914;57.680;11.982;2024-03-02T07:17:55;58.10;;;26.20;;
54871;SDS011;43914;57.680;11.982;2024-03-02T07:20:21;55.80;;;26.30;;
54871;SDS011;43914;57.680;11.982;2024-03-02T07:22:46;64.30;;;29.80;;
54871;SDS011;43914;57.680;11.982;2024-03-02T07:25:12;61.60;;;27.30;;
54871;SDS011;43914;57.680;11.982;2024-03-02T07:27:38;57.80;;;26.30;;
54871;SDS011;43914;57.680;11.982;2024-03-02T07:30:04;63.40;;;27.70;;
54871;SDS011;43914;57.680;11.982;2024-03-02T07:32:30;56.10;;;25.20;;
54871;SDS011;43914;57.680;11.982;2024-03-02T07:34:55;52.10;;;25.00;;
54871;SDS011;43914;57.680;11.982;2024-03-02T07:37:22;51.60;;;24.90;;
54871;SDS011;43914;57.680;11.982;2024-03-02T07:39:48;52.10;;;25.80;;
54871;SDS011;43914;57.680;11.982;2024-03-02T07:42:14;54.90;;;24.70;;
54871;SDS011;43914;57.680;11.982;2024-03-02T07:44:40;53.60;;;25.00;;
54871;SDS011;43914;57.680;11.982;2024-03-02T07:47:05;50.50;;;24.00;;
54871;SDS011;43914;57.680;11.982;2024-03-02T07:49:31;54.90;;;25.10;;
54871;SDS011;43914;57.680;11.982;2024-03-02T07:51:57;51.20;;;25.00;;
54871;SDS011;43914;57.680;11.982;2024-03-02T07:54:22;50.40;;;24.60;;
54871;SDS011;43914;57.680;11.982;2024-03-02T07:56:48;47.60;;;23.30;;
54871;SDS011;43914;57.680;11.982;2024-03-02T07:59:13;48.60;;;24.60;;
54871;SDS011;43914;57.680;11.982;2024-03-02T08:01:39;53.20;;;25.20;;
54871;SDS011;43914;57.680;11.982;2024-03-02T08:04:05;44.50;;;21.00;;
54871;SDS011;43914;57.680;11.982;2024-03-02T08:06:31;47.80;;;22.60;;
54871;SDS011;43914;57.680;11.982;2024-03-02T08:08:57;51.70;;;25.90;;
54871;SDS011;43914;57.680;11.982;2024-03-02T08:11:24;51.40;;;25.00;;
54871;SDS011;43914;57.680;11.982;2024-03-02T08:13:49;53.30;;;26.50;;
54871;SDS011;43914;57.680;11.982;2024-03-02T08:16:15;48.50;;;24.90;;
54871;SDS011;43914;57.680;11.982;2024-03-02T08:18:45;47.00;;;23.90;;
54871;SDS011;43914;57.680;11.982;2024-03-02T08:21:11;50.70;;;24.40;;
54871;SDS011;43914;57.680;11.982;2024-03-02T08:23:37;52.80;;;25.20;;
54871;SDS011;43914;57.680;11.982;2024-03-02T08:26:03;55.10;;;27.30;;
54871;SDS011;43914;57.680;11.982;2024-03-02T08:28:30;55.60;;;25.90;;
54871;SDS011;43914;57.680;11.982;2024-03-02T08:30:55;50.70;;;24.40;;
54871;SDS011;43914;57.680;11.982;2024-03-02T08:33:22;54.10;;;26.30;;
54871;SDS011;43914;57.680;11.982;2024-03-02T08:35:47;55.70;;;26.60;;
54871;SDS011;43914;57.680;11.982;2024-03-02T08:38:12;52.30;;;25.90;;
54871;SDS011;43914;57.680;11.982;2024-03-02T08:40:38;53.90;;;26.40;;
54871;SDS011;43914;57.680;11.982;2024-03-02T08:43:03;54.10;;;27.50;;
54871;SDS011;43914;57.680;11.982;2024-03-02T08:45:29;57.00;;;28.20;;
54871;SDS011;43914;57.680;11.982;2024-03-02T08:47:54;56.90;;;27.80;;
54871;SDS011;43914;57.680;11.982;2024-03-02T08:50:20;55.60;;;30.30;;
54871;SDS011;43914;57.680;11.982;2024-03-02T08:52:46;56.40;;;28.40;;
54871;SDS011;43914;57.680;11.982;2024-03-02T08:55:11;52.10;;;26.00;;
54871;SDS011;43914;57.680;11.982;2024-03-02T08:57:37;64.70;;;32.00;;
54871;SDS011;43914;57.680;11.982;2024-03-02T09:00:02;63.00;;;31.60;;
54871;SDS011;43914;57.680;11.982;2024-03-02T09:02:30;63.10;;;30.50;;
54871;SDS011;43914;57.680;11.982;2024-03-02T09:04:56;65.30;;;33.90;;
54871;SDS011;43914;57.680;11.982;2024-03-02T09:07:22;64.20;;;32.30;;
54871;SDS011;43914;57.680;11.982;2024-03-02T09:09:47;66.20;;;32.90;;
54871;SDS011;43914;57.680;11.982;2024-03-02T09:12:12;63.80;;;31.70;;
54871;SDS011;43914;57.680;11.982;2024-03-02T09:14:38;64.40;;;31.70;;
54871;SDS011;43914;57.680;11.982;2024-03-02T09:17:04;67.60;;;35.00;;
54871;SDS011;43914;57.680;11.982;2024-03-02T09:19:29;64.40;;;32.90;;
54871;SDS011;43914;57.680;11.982;2024-03-02T09:21:55;66.70;;;33.80;;
54871;SDS011;43914;57.680;11.982;2024-03-02T09:24:21;63.30;;;31.70;;
54871;SDS011;43914;57.680;11.982;2024-03-02T09:26:47;63.70;;;33.00;;
54871;SDS011;43914;57.680;11.982;2024-03-02T09:29:14;64.20;;;32.70;;
54871;SDS011;43914;57.680;11.982;2024-03-02T09:31:40;68.30;;;33.60;;
54871;SDS011;43914;57.680;11.982;2024-03-02T09:34:06;59.70;;;30.90;;
54871;SDS011;43914;57.680;11.982;2024-03-02T09:36:32;66.70;;;34.10;;
54871;SDS011;43914;57.680;11.982;2024-03-02T09:38:57;65.50;;;32.90;;
54871;SDS011;43914;57.680;11.982;2024-03-02T09:41:23;57.10;;;28.50;;
54871;SDS011;43914;57.680;11.982;2024-03-02T09:43:49;63.70;;;30.90;;
54871;SDS011;43914;57.680;11.982;2024-03-02T09:46:15;65.60;;;33.20;;
54871;SDS011;43914;57.680;11.982;2024-03-02T09:48:41;63.30;;;30.70;;
54871;SDS011;43914;57.680;11.982;2024-03-02T09:51:06;58.80;;;30.60;;
54871;SDS011;43914;57.680;11.982;2024-03-02T09:53:34;61.10;;;32.50;;
54871;SDS011;43914;57.680;11.982;2024-03-02T09:56:00;62.40;;;33.10;;
54871;SDS011;43914;57.680;11.982;2024-03-02T09:58:26;57.10;;;29.80;;
54871;SDS011;43914;57.680;11.982;2024-03-02T10:00:52;63.70;;;32.10;;
54871;SDS011;43914;57.680;11.982;2024-03-02T10:03:18;61.40;;;30.70;;
54871;SDS011;43914;57.680;11.982;2024-03-02T10:05:44;62.90;;;32.80;;
54871;SDS011;43914;57.680;11.982;2024-03-02T10:08:10;59.80;;;32.80;;
54871;SDS011;43914;57.680;11.982;2024-03-02T10:13:05;61.40;;;31.00;;
54871;SDS011;43914;57.680;11.982;2024-03-02T10:15:32;58.50;;;29.60;;
54871;SDS011;43914;57.680;11.982;2024-03-02T10:17:58;54.20;;;30.50;;
54871;SDS011;43914;57.680;11.982;2024-03-02T10:20:27;53.90;;;30.60;;
54871;SDS011;43914;57.680;11.982;2024-03-02T10:22:54;59.80;;;30.40;;
54871;SDS011;43914;57.680;11.982;2024-03-02T10:25:33;54.00;;;30.70;;
54871;SDS011;43914;57.680;11.982;2024-03-02T10:27:59;58.50;;;32.40;;
54871;SDS011;43914;57.680;11.982;2024-03-02T10:30:26;60.50;;;32.60;;
54871;SDS011;43914;57.680;11.982;2024-03-02T10:32:52;56.40;;;29.90;;
54871;SDS011;43914;57.680;11.982;2024-03-02T10:35:19;52.80;;;30.40;;
54871;SDS011;43914;57.680;11.982;2024-03-02T10:37:47;52.20;;;29.60;;
54871;SDS011;43914;57.680;11.982;2024-03-02T10:40:13;51.60;;;28.20;;
54871;SDS011;43914;57.680;11.982;2024-03-02T10:42:41;52.10;;;27.40;;
54871;SDS011;43914;57.680;11.982;2024-03-02T10:45:07;48.10;;;28.20;;
54871;SDS011;43914;57.680;11.982;2024-03-02T10:47:36;54.90;;;30.80;;
54871;SDS011;43914;57.680;11.982;2024-03-02T10:50:06;48.80;;;27.70;;
54871;SDS011;43914;57.680;11.982;2024-03-02T10:52:35;48.30;;;28.20;;
54871;SDS011;43914;57.680;11.982;2024-03-02T10:55:01;44.40;;;24.60;;
54871;SDS011;43914;57.680;11.982;2024-03-02T10:57:36;49.60;;;27.80;;
54871;SDS011;43914;57.680;11.982;2024-03-02T11:00:15;48.80;;;29.00;;
54871;SDS011;43914;57.680;11.982;2024-03-02T11:02:46;51.40;;;27.20;;
54871;SDS011;43914;57.680;11.982;2024-03-02T11:07:51;41.80;;;23.80;;
54871;SDS011;43914;57.680;11.982;2024-03-02T11:10:21;39.90;;;23.40;;
54871;SDS011;43914;57.680;11.982;2024-03-02T11:12:49;44.50;;;25.70;;
54871;SDS011;43914;57.680;11.982;2024-03-02T11:15:21;46.60;;;25.30;;
54871;SDS011;43914;57.680;11.982;2024-03-02T11:17:51;43.00;;;25.00;;
54871;SDS011;43914;57.680;11.982;2024-03-02T11:20:18;42.20;;;24.70;;
54871;SDS011;43914;57.680;11.982;2024-03-02T11:22:45;37.70;;;21.40;;
54871;SDS011;43914;57.680;11.982;2024-03-02T11:25:26;35.50;;;21.80;;
54871;SDS011;43914;57.680;11.982;2024-03-02T11:33:03;38.60;;;22.50;;
54871;SDS011;43914;57.680;11.982;2024-03-02T11:35:33;37.80;;;23.00;;
54871;SDS011;43914;57.680;11.982;2024-03-02T11:38:00;36.50;;;21.40;;
54871;SDS011;43914;57.680;11.982;2024-03-02T11:40:28;34.40;;;20.30;;
54871;SDS011;43914;57.680;11.982;2024-03-02T11:42:54;36.30;;;21.20;;
54871;SDS011;43914;57.680;11.982;2024-03-02T11:45:23;37.60;;;21.90;;
54871;SDS011;43914;57.680;11.982;2024-03-02T11:47:50;31.90;;;19.40;;
54871;SDS011;43914;57.680;11.982;2024-03-02T11:50:35;35.40;;;19.50;;
54871;SDS011;43914;57.680;11.982;2024-03-02T11:53:05;30.70;;;18.10;;
54871;SDS011;43914;57.680;11.982;2024-03-02T11:55:37;33.30;;;19.40;;
54871;SDS011;43914;57.680;11.982;2024-03-02T11:58:05;29.60;;;18.50;;
54871;SDS011;43914;57.680;11.982;2024-03-02T12:00:31;30.50;;;18.40;;
54871;SDS011;43914;57.680;11.982;2024-03-02T12:05:33;27.90;;;16.20;;
54871;SDS011;43914;57.680;11.982;2024-03-02T12:08:00;26.50;;;16.20;;
54871;SDS011;43914;57.680;11.982;2024-03-02T12:10:30;27.80;;;16.60;;
54871;SDS011;43914;57.680;11.982;2024-03-02T12:15:29;25.90;;;16.20;;
54871;SDS011;43914;57.680;11.982;2024-03-02T12:18:00;25.10;;;16.40;;
54871;SDS011;43914;57.680;11.982;2024-03-02T12:20:27;22.10;;;14.00;;
54871;SDS011;43914;57.680;11.982;2024-03-02T12:22:54;23.40;;;14.50;;
54871;SDS011;43914;57.680;11.982;2024-03-02T12:25:21;24.00;;;14.50;;
54871;SDS011;43914;57.680;11.982;2024-03-02T12:27:49;23.70;;;15.00;;
54871;SDS011;43914;57.680;11.982;2024-03-02T12:30:18;20.90;;;13.30;;
54871;SDS011;43914;57.680;11.982;2024-03-02T12:32:44;19.90;;;12.70;;
54871;SDS011;43914;57.680;11.982;2024-03-02T12:35:10;20.50;;;12.50;;
54871;SDS011;43914;57.680;11.982;2024-03-02T12:37:49;21.90;;;13.90;;
54871;SDS011;43914;57.680;11.982;2024-03-02T12:40:16;22.00;;;12.70;;
54871;SDS011;43914;57.680;11.982;2024-03-02T12:42:43;19.80;;;12.00;;
54871;SDS011;43914;57.680;11.982;2024-03-02T12:45:10;18.40;;;11.50;;
54871;SDS011;43914;57.680;11.982;2024-03-02T12:47:36;18.50;;;11.80;;
54871;SDS011;43914;57.680;11.982;2024-03-02T12:50:05;18.30;;;11.80;;
54871;SDS011;43914;57.680;11.982;2024-03-02T12:52:32;18.20;;;11.70;;
54871;SDS011;43914;57.680;11.982;2024-03-02T12:54:59;17.70;;;10.90;;
54871;SDS011;43914;57.680;11.982;2024-03-02T12:57:26;16.00;;;10.60;;
54871;SDS011;43914;57.680;11.982;2024-03-02T12:59:58;16.60;;;9.80;;
54871;SDS011;43914;57.680;11.982;2024-03-02T13:02:34;17.60;;;10.00;;
54871;SDS011;43914;57.680;11.982;2024-03-02T13:05:01;13.10;;;8.60;;
54871;SDS011;43914;57.680;11.982;2024-03-02T13:07:27;15.30;;;9.10;;
54871;SDS011;43914;57.680;11.982;2024-03-02T13:09:54;14.00;;;9.20;;
54871;SDS011;43914;57.680;11.982;2024-03-02T13:12:21;14.90;;;8.80;;
54871;SDS011;43914;57.680;11.982;2024-03-02T13:14:49;13.70;;;9.00;;
54871;SDS011;43914;57.680;11.982;2024-03-02T13:17:19;13.70;;;8.60;;
54871;SDS011;43914;57.680;11.982;2024-03-02T13:22:24;13.10;;;8.20;;
54871;SDS011;43914;57.680;11.982;2024-03-02T13:24:50;13.50;;;8.20;;
54871;SDS011;43914;57.680;11.982;2024-03-02T13:27:17;11.60;;;7.10;;
54871;SDS011;43914;57.680;11.982;2024-03-02T13:29:45;12.70;;;7.90;;
54871;SDS011;43914;57.680;11.982;2024-03-02T13:32:15;12.10;;;7.60;;
54871;SDS011;43914;57.680;11.982;2024-03-02T13:34:41;13.00;;;7.80;;
54871;SDS011;43914;57.680;11.982;2024-03-02T13:37:08;12.30;;;7.70;;
54871;SDS011;43914;57.680;11.982;2024-03-02T13:39:34;12.30;;;7.40;;
54871;SDS011;43914;57.680;11.982;2024-03-02T13:42:08;12.50;;;7.10;;
54871;SDS011;43914;57.680;11.982;2024-03-02T13:44:36;13.70;;;7.90;;
54871;SDS011;43914;57.680;11.982;2024-03-02T13:47:01;12.60;;;7.40;;
54871;SDS011;43914;57.680;11.982;2024-03-02T13:49:27;12.80;;;7.70;;
54871;SDS011;43914;57.680;11.982;2024-03-02T13:52:02;12.40;;;7.60;;
54871;SDS011;43914;57.680;11.982;2024-03-02T13:54:30;11.80;;;7.70;;
54871;SDS011;43914;57.680;11.982;2024-03-02T13:56:55;11.40;;;7.20;;
54871;SDS011;43914;57.680;11.982;2024-03-02T13:59:23;10.70;;;6.80;;
54871;SDS011;43914;57.680;11.982;2024-03-02T14:01:50;11.00;;;6.50;;
54871;SDS011;43914;57.680;11.982;2024-03-02T14:04:16;10.70;;;6.10;;
54871;SDS011;43914;57.680;11.982;2024-03-02T14:06:43;11.70;;;7.10;;
54871;SDS011;43914;57.680;11.982;2024-03-02T14:09:09;11.00;;;6.60;;
54871;SDS011;43914;57.680;11.982;2024-03-02T14:11:34;11.60;;;6.40;;
54871;SDS011;43914;57.680;11.982;2024-03-02T14:14:00;11.60;;;6.60;;
54871;SDS011;43914;57.680;11.982;2024-03-02T14:16:27;11.20;;;6.70;;
54871;SDS011;43914;57.680;11.982;2024-03-02T14:18:52;11.10;;;7.00;;
54871;SDS011;43914;57.680;11.982;2024-03-02T14:21:18;10.50;;;6.50;;
54871;SDS011;43914;57.680;11.982;2024-03-02T14:23:46;12.80;;;7.60;;
54871;SDS011;43914;57.680;11.982;2024-03-02T14:26:11;10.70;;;6.30;;
54871;SDS011;43914;57.680;11.982;2024-03-02T14:28:37;11.40;;;6.70;;
54871;SDS011;43914;57.680;11.982;2024-03-02T14:31:02;11.30;;;6.50;;